Time;durP1;ratioP1;P1;durP2;ratioP2;P2;SDS_P1;SDS_P2;PMS_P1;PMS_P2;Temp;Humidity;BMP_temperature;BMP_pressure;BME280_temperature;BME280_humidity;BME280_pressure;Samples;Min_cycle;Max_cycle;Signal;HPM_P1;HPM_P2
2023/05/24 00:01:44;;;;;;;22.23;20.00;;;;;;;;;;5041962;28;20454;-82
2023/05/24 00:04:11;;;;;;;21.95;19.65;;;;;;;;;;5041723;28;20503;-81
2023/05/24 00:06:38;;;;;;;20.67;18.93;;;;;;;;;;5042013;28;20741;-81
2023/05/24 00:09:05;;;;;;;23.60;18.93;;;;;;;;;;5042265;28;20475;-81
2023/05/24 00:11:32;;;;;;;23.63;21.47;;;;;;;;;;5041860;28;20474;-81
2023/05/24 00:13:59;;;;;;;24.70;20.65;;;;;;;;;;5042482;28;20447;-81
2023/05/24 00:16:28;;;;;;;23.83;21.63;;;;;;;;;;5041574;28;20205;-81
2023/05/24 00:18:57;;;;;;;24.17;21.55;;;;;;;;;;5041818;28;20211;-81
2023/05/24 00:21:24;;;;;;;23.03;20.70;;;;;;;;;;5042191;28;20208;-81
2023/05/24 00:23:51;;;;;;;23.20;21.60;;;;;;;;;;5041703;28;20447;-81
2023/05/24 00:26:18;;;;;;;23.85;21.70;;;;;;;;;;5041184;28;20953;-81
2023/05/24 00:28:45;;;;;;;22.90;21.02;;;;;;;;;;5041731;28;20229;-81
2023/05/24 00:31:12;;;;;;;23.33;21.23;;;;;;;;;;5042101;28;20285;-81
2023/05/24 00:33:40;;;;;;;21.48;19.92;;;;;;;;;;5041967;28;20275;-81
2023/05/24 00:36:08;;;;;;;21.42;19.90;;;;;;;;;;5040866;28;20213;-82
2023/05/24 00:38:35;;;;;;;21.60;20.20;;;;;;;;;;5041342;28;20296;-81
2023/05/24 00:41:02;;;;;;;23.90;21.67;;;;;;;;;;5040857;28;20983;-81
2023/05/24 00:43:29;;;;;;;24.30;20.60;;;;;;;;;;5041337;28;20205;-82
2023/05/24 00:46:07;;;;;;;22.53;20.60;;;;;;;;;;5041055;28;20451;-81
2023/05/24 00:48:34;;;;;;;22.90;20.80;;;;;;;;;;5041205;28;20468;-82
2023/05/24 00:51:02;;;;;;;23.35;21.23;;;;;;;;;;5041476;28;20454;-81
2023/05/24 00:53:30;;;;;;;22.07;20.33;;;;;;;;;;5043661;28;20201;-82
2023/05/24 00:55:58;;;;;;;23.27;20.90;;;;;;;;;;5044913;28;20432;-81
2023/05/24 00:58:29;;;;;;;22.83;20.60;;;;;;;;;;5045564;28;20430;-81
2023/05/24 01:00:59;;;;;;;21.80;20.17;;;;;;;;;;5045305;28;20224;-82
2023/05/24 01:03:27;;;;;;;22.53;20.87;;;;;;;;;;5045151;28;20447;-81
2023/05/24 01:05:55;;;;;;;22.50;20.60;;;;;;;;;;5044114;28;20441;-82
2023/05/24 01:08:29;;;;;;;22.43;20.33;;;;;;;;;;5045456;28;20491;-82
2023/05/24 01:11:00;;;;;;;21.43;19.93;;;;;;;;;;5045192;28;20906;-82
2023/05/24 01:13:31;;;;;;;23.40;21.45;;;;;;;;;;5048456;28;20436;-82
2023/05/24 01:16:02;;;;;;;24.63;22.35;;;;;;;;;;5046908;28;20262;-82
2023/05/24 01:18:31;;;;;;;23.35;21.40;;;;;;;;;;5048100;28;20613;-82
2023/05/24 01:21:03;;;;;;;26.77;24.52;;;;;;;;;;5048084;28;20237;-82
2023/05/24 01:23:35;;;;;;;21.30;20.08;;;;;;;;;;5047703;28;20212;-82
2023/05/24 01:26:16;;;;;;;21.00;19.70;;;;;;;;;;5046889;28;20189;-82
2023/05/24 01:28:45;;;;;;;22.95;21.23;;;;;;;;;;5046888;28;20221;-82
2023/05/24 01:31:13;;;;;;;21.65;19.85;;;;;;;;;;5046375;28;20228;-81
2023/05/24 01:33:42;;;;;;;21.55;19.90;;;;;;;;;;5046681;28;20236;-81
2023/05/24 01:36:09;;;;;;;22.63;20.95;;;;;;;;;;5045384;28;20216;-82
2023/05/24 01:38:36;;;;;;;22.38;20.55;;;;;;;;;;5045678;28;20227;-82
2023/05/24 01:41:07;;;;;;;22.35;20.55;;;;;;;;;;5046370;28;20271;-82
2023/05/24 01:43:38;;;;;;;24.15;22.13;;;;;;;;;;5045421;28;20193;-82
2023/05/24 01:46:12;;;;;;;26.03;20.50;;;;;;;;;;5044676;28;20362;-84
2023/05/24 01:48:47;;;;;;;22.73;20.92;;;;;;;;;;5045441;28;20450;-83
2023/05/24 01:51:16;;;;;;;23.08;20.85;;;;;;;;;;5045184;28;20233;-81
2023/05/24 01:53:46;;;;;;;21.92;20.15;;;;;;;;;;5045763;28;20254;-82
2023/05/24 01:56:13;;;;;;;22.08;20.45;;;;;;;;;;5044696;28;20577;-81
2023/05/24 01:58:42;;;;;;;28.42;20.52;;;;;;;;;;5045068;28;20267;-83
2023/05/24 02:01:11;;;;;;;20.88;19.52;;;;;;;;;;5044931;28;20252;-82
2023/05/24 02:03:39;;;;;;;22.27;20.45;;;;;;;;;;5045485;28;20205;-82
2023/05/24 02:06:06;;;;;;;22.30;20.15;;;;;;;;;;5043133;28;20204;-81
2023/05/24 02:08:34;;;;;;;21.73;20.05;;;;;;;;;;5044822;28;20275;-82
2023/05/24 02:11:01;;;;;;;23.05;20.83;;;;;;;;;;5048083;28;20256;-81
2023/05/24 02:13:28;;;;;;;22.05;20.05;;;;;;;;;;5053587;28;20229;-81
2023/05/24 02:15:55;;;;;;;22.35;20.77;;;;;;;;;;5053098;28;20232;-81
2023/05/24 02:18:23;;;;;;;22.13;20.35;;;;;;;;;;5047167;28;20255;-83
2023/05/24 02:20:50;;;;;;;21.35;19.63;;;;;;;;;;5045800;28;20220;-81
2023/05/24 02:23:17;;;;;;;21.70;19.88;;;;;;;;;;5045729;28;20211;-82
2023/05/24 02:25:44;;;;;;;22.80;20.40;;;;;;;;;;5045829;28;20300;-82
2023/05/24 02:28:11;;;;;;;22.30;20.30;;;;;;;;;;5045743;28;20240;-81
2023/05/24 02:30:39;;;;;;;22.23;20.42;;;;;;;;;;5044896;28;20225;-81
2023/05/24 02:33:06;;;;;;;23.38;21.40;;;;;;;;;;5045473;28;20216;-81
2023/05/24 02:35:35;;;;;;;22.45;20.63;;;;;;;;;;5044616;28;20269;-81
2023/05/24 02:38:02;;;;;;;22.90;20.30;;;;;;;;;;5044768;28;20588;-81
2023/05/24 02:40:29;;;;;;;24.38;22.42;;;;;;;;;;5045075;28;20286;-81
2023/05/24 02:42:56;;;;;;;21.50;19.90;;;;;;;;;;5044581;28;20255;-81
2023/05/24 02:45:23;;;;;;;22.05;20.10;;;;;;;;;;5044078;28;20208;-82
2023/05/24 02:47:50;;;;;;;22.27;20.40;;;;;;;;;;5043702;28;20251;-81
2023/05/24 02:50:17;;;;;;;22.27;20.42;;;;;;;;;;5044067;28;20454;-82
2023/05/24 02:52:45;;;;;;;21.25;19.88;;;;;;;;;;5043633;28;20258;-81
2023/05/24 02:55:12;;;;;;;21.00;19.60;;;;;;;;;;5044408;28;20209;-82
2023/05/24 02:57:40;;;;;;;21.70;20.20;;;;;;;;;;5043199;28;20267;-82
2023/05/24 03:00:08;;;;;;;22.83;21.13;;;;;;;;;;5043590;28;20231;-81
2023/05/24 03:02:37;;;;;;;30.25;22.58;;;;;;;;;;5042958;28;20193;-81
2023/05/24 03:05:04;;;;;;;22.45;20.60;;;;;;;;;;5043015;28;20205;-81
2023/05/24 03:07:31;;;;;;;21.77;20.17;;;;;;;;;;5042929;28;20560;-83
2023/05/24 03:09:59;;;;;;;22.02;20.45;;;;;;;;;;5043072;28;20229;-81
2023/05/24 03:12:26;;;;;;;22.23;20.73;;;;;;;;;;5043382;28;20201;-82
2023/05/24 03:14:53;;;;;;;22.70;20.95;;;;;;;;;;5042995;28;20209;-82
2023/05/24 03:17:20;;;;;;;22.58;20.55;;;;;;;;;;5040658;28;20213;-83
2023/05/24 03:19:47;;;;;;;22.60;20.42;;;;;;;;;;5042678;28;20243;-82
2023/05/24 03:22:14;;;;;;;21.77;19.88;;;;;;;;;;5042171;28;20204;-81
2023/05/24 03:24:41;;;;;;;22.52;20.65;;;;;;;;;;5042478;28;20558;-82
2023/05/24 03:27:10;;;;;;;23.60;21.35;;;;;;;;;;5042325;28;20276;-82
2023/05/24 03:29:37;;;;;;;22.00;20.38;;;;;;;;;;5041840;28;20236;-81
2023/05/24 03:32:04;;;;;;;22.67;20.88;;;;;;;;;;5042814;28;20197;-81
2023/05/24 03:34:31;;;;;;;22.30;20.58;;;;;;;;;;5041758;28;20657;-81
2023/05/24 03:36:58;;;;;;;21.85;20.58;;;;;;;;;;5041967;28;20209;-81
2023/05/24 03:39:33;;;;;;;21.92;20.40;;;;;;;;;;5097468;27;20590;-81
2023/05/24 03:42:00;;;;;;;22.48;20.73;;;;;;;;;;5078233;28;20211;-82
2023/05/24 03:44:27;;;;;;;21.52;20.02;;;;;;;;;;5077670;28;20208;-81
2023/05/24 03:46:54;;;;;;;23.02;20.77;;;;;;;;;;5076277;28;20668;-80
2023/05/24 03:49:21;;;;;;;21.05;19.55;;;;;;;;;;5076502;28;20223;-79
2023/05/24 03:51:48;;;;;;;21.35;19.70;;;;;;;;;;5076110;28;20253;-79
2023/05/24 03:54:16;;;;;;;21.02;19.38;;;;;;;;;;5075853;28;20208;-79
2023/05/24 03:56:45;;;;;;;22.88;20.65;;;;;;;;;;5075915;28;20211;-80
2023/05/24 03:59:12;;;;;;;21.55;19.83;;;;;;;;;;5074582;28;20227;-79
2023/05/24 04:01:39;;;;;;;22.45;20.65;;;;;;;;;;5074994;28;20668;-79
2023/05/24 04:04:06;;;;;;;21.08;19.45;;;;;;;;;;5074527;28;20199;-79
2023/05/24 04:06:35;;;;;;;21.17;19.90;;;;;;;;;;5073807;28;20742;-80
2023/05/24 04:09:04;;;;;;;22.52;20.50;;;;;;;;;;5075295;28;20263;-78
2023/05/24 04:11:31;;;;;;;22.52;20.48;;;;;;;;;;5074661;28;20259;-78
2023/05/24 04:14:00;;;;;;;21.70;19.90;;;;;;;;;;5074065;28;20203;-80
2023/05/24 04:16:27;;;;;;;21.52;19.73;;;;;;;;;;5074296;28;20446;-79
2023/05/24 04:18:55;;;;;;;22.20;20.38;;;;;;;;;;5074261;28;20219;-78
2023/05/24 04:21:22;;;;;;;21.13;19.77;;;;;;;;;;5074279;28;20667;-79
2023/05/24 04:23:49;;;;;;;22.70;20.95;;;;;;;;;;5075374;28;20454;-79
2023/05/24 04:26:16;;;;;;;23.73;21.40;;;;;;;;;;5075579;28;20211;-79
2023/05/24 04:28:44;;;;;;;25.48;21.90;;;;;;;;;;5075478;28;20207;-80
2023/05/24 04:31:12;;;;;;;21.77;20.15;;;;;;;;;;5074699;28;20228;-79
2023/05/24 04:33:40;;;;;;;21.90;20.05;;;;;;;;;;5074607;28;20296;-79
2023/05/24 04:36:10;;;;;;;24.98;21.55;;;;;;;;;;5073953;28;20204;-79
2023/05/24 04:38:37;;;;;;;22.73;20.98;;;;;;;;;;5074158;28;20695;-79
2023/05/24 04:41:05;;;;;;;23.25;21.05;;;;;;;;;;5075536;28;20224;-79
2023/05/24 04:43:32;;;;;;;24.20;21.63;;;;;;;;;;5074201;28;20203;-79
2023/05/24 04:45:59;;;;;;;22.63;20.40;;;;;;;;;;5073067;28;20204;-80
2023/05/24 04:48:27;;;;;;;23.05;21.05;;;;;;;;;;5073464;28;20254;-79
2023/05/24 04:50:55;;;;;;;24.50;21.23;;;;;;;;;;5060801;28;20224;-79
2023/05/24 04:53:23;;;;;;;21.70;20.10;;;;;;;;;;5061266;28;20252;-79
2023/05/24 04:55:50;;;;;;;22.85;20.88;;;;;;;;;;5060514;28;20732;-78
2023/05/24 04:58:17;;;;;;;23.67;21.67;;;;;;;;;;5061921;28;20246;-79
2023/05/24 05:00:44;;;;;;;23.80;21.80;;;;;;;;;;5061141;28;20224;-79
2023/05/24 05:03:11;;;;;;;25.33;22.85;;;;;;;;;;5062133;28;20250;-79
2023/05/24 05:05:39;;;;;;;22.97;20.80;;;;;;;;;;5061109;28;20196;-80
2023/05/24 05:08:07;;;;;;;22.33;20.67;;;;;;;;;;5061832;28;20448;-79
2023/05/24 05:10:34;;;;;;;23.00;20.73;;;;;;;;;;5062198;28;20223;-80
2023/05/24 05:13:00;;;;;;;23.13;20.90;;;;;;;;;;5062701;28;20230;-79
2023/05/24 05:15:28;;;;;;;22.10;20.30;;;;;;;;;;5061088;28;20422;-80
2023/05/24 05:17:56;;;;;;;23.00;21.27;;;;;;;;;;5061908;28;20445;-80
2023/05/24 05:20:23;;;;;;;23.40;21.50;;;;;;;;;;5065493;28;20247;-80
2023/05/24 05:22:51;;;;;;;24.90;22.50;;;;;;;;;;5064489;28;20451;-80
2023/05/24 05:25:18;;;;;;;23.30;21.15;;;;;;;;;;5063677;28;20451;-79
2023/05/24 05:27:45;;;;;;;23.53;21.30;;;;;;;;;;5062627;28;20212;-79
2023/05/24 05:30:13;;;;;;;23.25;21.02;;;;;;;;;;5061765;28;20483;-79
2023/05/24 05:32:40;;;;;;;25.13;20.63;;;;;;;;;;5062464;28;20204;-80
2023/05/24 05:35:07;;;;;;;23.77;21.58;;;;;;;;;;5062951;28;20417;-79
2023/05/24 05:37:34;;;;;;;22.83;20.80;;;;;;;;;;5060597;28;20246;-80
2023/05/24 05:40:03;;;;;;;25.30;22.50;;;;;;;;;;5060829;28;20896;-80
2023/05/24 05:42:30;;;;;;;27.20;22.00;;;;;;;;;;5060439;28;20458;-79
2023/05/24 05:44:57;;;;;;;23.48;21.30;;;;;;;;;;5060488;28;20425;-79
2023/05/24 05:47:24;;;;;;;24.10;21.57;;;;;;;;;;5060291;28;20227;-79
2023/05/24 05:49:51;;;;;;;23.60;21.35;;;;;;;;;;5061415;28;20463;-79
2023/05/24 05:52:18;;;;;;;24.20;21.75;;;;;;;;;;5060946;28;20254;-80
2023/05/24 05:54:45;;;;;;;24.38;22.25;;;;;;;;;;5061060;28;20266;-80
2023/05/24 05:57:15;;;;;;;24.47;22.07;;;;;;;;;;5061312;28;20204;-80
2023/05/24 05:59:42;;;;;;;24.20;21.30;;;;;;;;;;5060700;28;21060;-80
2023/05/24 06:02:09;;;;;;;23.47;20.50;;;;;;;;;;5060444;28;20200;-79
2023/05/24 06:04:36;;;;;;;23.60;21.20;;;;;;;;;;5060805;28;20455;-79
2023/05/24 06:07:03;;;;;;;25.50;21.00;;;;;;;;;;5059135;28;20459;-79
2023/05/24 06:09:30;;;;;;;22.43;20.30;;;;;;;;;;5059932;28;20445;-80
2023/05/24 06:11:57;;;;;;;23.70;21.30;;;;;;;;;;5064515;28;20451;-81
2023/05/24 06:14:25;;;;;;;23.50;21.20;;;;;;;;;;5065812;28;20497;-80
2023/05/24 06:16:53;;;;;;;24.37;22.10;;;;;;;;;;5065127;28;20442;-81
2023/05/24 06:19:20;;;;;;;24.63;22.27;;;;;;;;;;5064923;28;20468;-80
2023/05/24 06:21:49;;;;;;;23.83;21.47;;;;;;;;;;5066534;28;20425;-81
2023/05/24 06:24:19;;;;;;;23.90;21.87;;;;;;;;;;5064435;28;20443;-81
2023/05/24 06:26:46;;;;;;;24.07;21.77;;;;;;;;;;5063247;28;20454;-81
2023/05/24 06:29:13;;;;;;;24.70;22.13;;;;;;;;;;5064204;28;20963;-80
2023/05/24 06:31:42;;;;;;;23.33;21.40;;;;;;;;;;5064407;28;20506;-80
2023/05/24 06:34:09;;;;;;;22.57;20.53;;;;;;;;;;5063659;28;20425;-80
2023/05/24 06:36:40;;;;;;;24.13;21.83;;;;;;;;;;5062553;28;20807;-80
2023/05/24 06:39:07;;;;;;;25.53;20.90;;;;;;;;;;5062587;28;20497;-80
2023/05/24 06:41:34;;;;;;;24.00;21.80;;;;;;;;;;5063313;28;20443;-81
2023/05/24 06:44:01;;;;;;;30.17;22.40;;;;;;;;;;5072246;28;20414;-79
2023/05/24 06:46:28;;;;;;;22.87;21.03;;;;;;;;;;5078291;28;20425;-79
2023/05/24 06:48:56;;;;;;;25.50;23.00;;;;;;;;;;5078513;28;20409;-79
2023/05/24 06:51:24;;;;;;;24.13;21.93;;;;;;;;;;5065127;28;20409;-80
2023/05/24 06:53:51;;;;;;;23.63;21.73;;;;;;;;;;5064295;28;20453;-81
2023/05/24 06:56:18;;;;;;;23.10;21.40;;;;;;;;;;5064014;28;20428;-80
2023/05/24 06:58:45;;;;;;;25.23;22.57;;;;;;;;;;5063757;28;20513;-80
2023/05/24 07:01:13;;;;;;;22.77;21.07;;;;;;;;;;5063249;28;20467;-80
2023/05/24 07:03:40;;;;;;;28.40;22.67;;;;;;;;;;5063784;28;20749;-80
2023/05/24 07:06:12;;;;;;;23.03;20.93;;;;;;;;;;5062700;28;20447;-80
2023/05/24 07:08:40;;;;;;;25.47;22.73;;;;;;;;;;5063456;28;20785;-80
2023/05/24 07:11:07;;;;;;;23.67;21.57;;;;;;;;;;5062743;28;20478;-80
2023/05/24 07:13:34;;;;;;;26.33;22.40;;;;;;;;;;5062772;28;20482;-80
2023/05/24 07:16:01;;;;;;;24.90;22.40;;;;;;;;;;5061131;28;20481;-79
2023/05/24 07:18:28;;;;;;;25.67;22.90;;;;;;;;;;5062115;28;20458;-80
2023/05/24 07:20:55;;;;;;;22.83;20.80;;;;;;;;;;5061572;28;21128;-81
2023/05/24 07:23:23;;;;;;;27.47;23.63;;;;;;;;;;5061528;28;20463;-80
2023/05/24 07:25:50;;;;;;;24.53;22.63;;;;;;;;;;5060772;28;20454;-80
2023/05/24 07:28:18;;;;;;;24.67;22.63;;;;;;;;;;5061895;28;20471;-80
2023/05/24 07:30:45;;;;;;;28.13;22.67;;;;;;;;;;5060531;28;20498;-80
2023/05/24 07:33:12;;;;;;;23.93;21.60;;;;;;;;;;5061332;28;20429;-80
2023/05/24 07:35:40;;;;;;;24.70;22.20;;;;;;;;;;5059687;28;20417;-80
2023/05/24 07:38:07;;;;;;;24.23;22.20;;;;;;;;;;5060680;28;20482;-80
2023/05/24 07:40:36;;;;;;;25.27;22.77;;;;;;;;;;5061010;28;20469;-80
2023/05/24 07:43:03;;;;;;;26.30;23.20;;;;;;;;;;5060870;28;20538;-80
2023/05/24 07:45:30;;;;;;;25.10;22.67;;;;;;;;;;5060434;28;20508;-79
2023/05/24 07:47:57;;;;;;;24.40;22.20;;;;;;;;;;5059668;28;20430;-79
2023/05/24 07:50:25;;;;;;;25.80;23.33;;;;;;;;;;5059755;28;20438;-80
2023/05/24 07:52:52;;;;;;;33.07;22.97;;;;;;;;;;5060101;28;20559;-79
2023/05/24 07:55:19;;;;;;;25.07;22.53;;;;;;;;;;5060295;28;20472;-79
2023/05/24 07:57:48;;;;;;;24.80;22.43;;;;;;;;;;5059375;28;20428;-80
2023/05/24 08:00:15;;;;;;;25.20;22.90;;;;;;;;;;5059124;28;20465;-80
2023/05/24 08:02:42;;;;;;;25.27;22.77;;;;;;;;;;5059744;28;20429;-80
2023/05/24 08:05:10;;;;;;;23.70;21.53;;;;;;;;;;5059490;28;20458;-80
2023/05/24 08:07:37;;;;;;;26.17;23.50;;;;;;;;;;5060774;28;20533;-80
2023/05/24 08:10:05;;;;;;;27.70;22.80;;;;;;;;;;5060804;28;20442;-80
2023/05/24 08:12:31;;;;;;;26.83;23.80;;;;;;;;;;5060809;28;20510;-81
2023/05/24 08:15:00;;;;;;;28.03;24.60;;;;;;;;;;5060014;28;20471;-80
2023/05/24 08:17:28;;;;;;;25.63;23.10;;;;;;;;;;5058986;28;20461;-79
2023/05/24 08:19:55;;;;;;;25.60;23.07;;;;;;;;;;5059494;28;20465;-79
2023/05/24 08:22:22;;;;;;;25.37;23.10;;;;;;;;;;5059249;28;20421;-79
2023/05/24 08:24:50;;;;;;;24.40;22.50;;;;;;;;;;5060430;28;20485;-80
2023/05/24 08:27:17;;;;;;;25.93;23.50;;;;;;;;;;5062190;28;20454;-80
2023/05/24 08:29:44;;;;;;;26.53;24.13;;;;;;;;;;5062875;28;20499;-80
2023/05/24 08:32:12;;;;;;;25.30;22.73;;;;;;;;;;5062302;28;20917;-79
2023/05/24 08:34:39;;;;;;;27.07;23.70;;;;;;;;;;5063106;28;20913;-80
2023/05/24 08:37:08;;;;;;;25.27;22.60;;;;;;;;;;5062087;28;20437;-80
2023/05/24 08:39:35;;;;;;;28.17;25.50;;;;;;;;;;5061789;28;20460;-79
2023/05/24 08:42:03;;;;;;;26.40;23.60;;;;;;;;;;5062724;28;20443;-80
2023/05/24 08:44:31;;;;;;;26.00;23.47;;;;;;;;;;5062179;28;20438;-80
2023/05/24 08:46:59;;;;;;;25.60;23.30;;;;;;;;;;5061544;28;20421;-80
2023/05/24 08:49:28;;;;;;;25.13;23.27;;;;;;;;;;5061878;28;21007;-79
2023/05/24 08:51:55;;;;;;;25.40;23.07;;;;;;;;;;5062017;28;20451;-80
2023/05/24 08:54:23;;;;;;;25.50;23.10;;;;;;;;;;5062676;28;20516;-80
2023/05/24 08:56:50;;;;;;;28.03;21.40;;;;;;;;;;5062567;28;20812;-80
2023/05/24 08:59:17;;;;;;;24.60;22.40;;;;;;;;;;5062185;28;20487;-80
2023/05/24 09:01:44;;;;;;;27.93;23.00;;;;;;;;;;5061935;28;20429;-80
2023/05/24 09:04:12;;;;;;;25.20;22.80;;;;;;;;;;5061789;28;20455;-79
2023/05/24 09:06:40;;;;;;;36.93;23.63;;;;;;;;;;5061987;28;21000;-80
2023/05/24 09:09:08;;;;;;;24.63;22.53;;;;;;;;;;5062357;28;20422;-79
2023/05/24 09:11:36;;;;;;;25.80;23.47;;;;;;;;;;5062188;28;20482;-80
2023/05/24 09:14:03;;;;;;;24.43;22.40;;;;;;;;;;5062017;28;20428;-79
2023/05/24 09:16:30;;;;;;;26.40;23.53;;;;;;;;;;5064786;28;20417;-80
2023/05/24 09:18:57;;;;;;;25.90;23.27;;;;;;;;;;5062748;28;20480;-80
2023/05/24 09:21:24;;;;;;;27.30;25.00;;;;;;;;;;5062545;28;20426;-80
2023/05/24 09:23:54;;;;;;;27.10;23.70;;;;;;;;;;5063329;28;20450;-80
2023/05/24 09:26:21;;;;;;;24.10;21.87;;;;;;;;;;5061003;28;20425;-80
2023/05/24 09:28:50;;;;;;;26.33;24.07;;;;;;;;;;5060439;28;20921;-79
2023/05/24 09:31:17;;;;;;;25.80;23.40;;;;;;;;;;5062418;28;20430;-80
2023/05/24 09:33:44;;;;;;;27.73;23.03;;;;;;;;;;5061107;28;20871;-80
2023/05/24 09:36:11;;;;;;;24.03;21.83;;;;;;;;;;5060694;28;20451;-80
2023/05/24 09:38:38;;;;;;;25.00;22.70;;;;;;;;;;5061024;28;20941;-79
2023/05/24 09:41:09;;;;;;;23.13;21.10;;;;;;;;;;5060225;28;20465;-78
2023/05/24 09:43:47;;;;;;;39.03;24.37;;;;;;;;;;5060687;28;20450;-80
2023/05/24 09:46:17;;;;;;;24.73;22.20;;;;;;;;;;5060746;28;20386;-80
2023/05/24 09:48:55;;;;;;;24.67;22.67;;;;;;;;;;5063051;28;20417;-80
2023/05/24 09:51:22;;;;;;;25.13;22.83;;;;;;;;;;5063372;28;20418;-80
2023/05/24 09:53:51;;;;;;;24.33;22.30;;;;;;;;;;5063318;28;20450;-80
2023/05/24 09:56:20;;;;;;;25.00;22.93;;;;;;;;;;5061454;28;20417;-79
2023/05/24 09:58:47;;;;;;;23.83;21.93;;;;;;;;;;5063217;28;20501;-81
2023/05/24 10:01:15;;;;;;;25.10;22.70;;;;;;;;;;5063162;28;20453;-80
2023/05/24 10:03:52;;;;;;;24.43;22.20;;;;;;;;;;5063151;28;20789;-80
2023/05/24 10:06:19;;;;;;;25.07;22.90;;;;;;;;;;5062977;28;20405;-80
2023/05/24 10:08:48;;;;;;;25.80;23.37;;;;;;;;;;5062878;28;20429;-80
2023/05/24 10:11:15;;;;;;;23.63;21.43;;;;;;;;;;5062969;28;20463;-79
2023/05/24 10:13:44;;;;;;;28.93;22.73;;;;;;;;;;5061940;28;20446;-80
2023/05/24 10:16:11;;;;;;;25.53;23.57;;;;;;;;;;5061269;28;20458;-80
2023/05/24 10:18:38;;;;;;;24.43;22.53;;;;;;;;;;5061839;28;20424;-80
2023/05/24 10:21:08;;;;;;;23.80;21.67;;;;;;;;;;5061661;28;20816;-81
2023/05/24 10:23:37;;;;;;;23.20;21.07;;;;;;;;;;5061332;28;20452;-80
2023/05/24 10:26:06;;;;;;;23.17;21.07;;;;;;;;;;5063270;28;20586;-80
2023/05/24 10:28:35;;;;;;;23.53;20.90;;;;;;;;;;5065234;28;20425;-81
2023/05/24 10:31:06;;;;;;;21.87;19.80;;;;;;;;;;5065657;28;20467;-79
2023/05/24 10:33:36;;;;;;;22.63;20.73;;;;;;;;;;5063263;28;20432;-83
2023/05/24 10:36:04;;;;;;;24.47;21.47;;;;;;;;;;5063204;28;20417;-80
2023/05/24 10:38:31;;;;;;;24.50;21.47;;;;;;;;;;5064060;28;20429;-80
2023/05/24 10:40:58;;;;;;;26.20;21.97;;;;;;;;;;5063882;28;20476;-80
2023/05/24 10:43:26;;;;;;;24.37;21.80;;;;;;;;;;5058613;28;20945;-79
2023/05/24 10:45:53;;;;;;;25.47;22.47;;;;;;;;;;5056170;28;20848;-77
2023/05/24 10:48:40;;;;;;;25.17;22.60;;;;;;;;;;5055682;28;20429;-77
2023/05/24 10:51:26;;;;;;;23.90;21.97;;;;;;;;;;5055100;28;20445;-79
2023/05/24 10:53:53;;;;;;;24.23;22.00;;;;;;;;;;5057030;28;20938;-80
2023/05/24 10:56:22;;;;;;;23.40;21.00;;;;;;;;;;5045053;28;20503;-86
2023/05/24 10:58:59;;;;;;;23.70;21.70;;;;;;;;;;5039383;28;20816;-81
2023/05/24 11:01:26;;;;;;;24.93;22.27;;;;;;;;;;5036286;28;20454;-78
2023/05/24 11:04:06;;;;;;;23.57;21.40;;;;;;;;;;5037377;28;20430;-79
2023/05/24 11:06:47;;;;;;;23.87;21.67;;;;;;;;;;5035957;28;20446;-79
2023/05/24 11:09:14;;;;;;;26.60;24.00;;;;;;;;;;5038778;28;20506;-80
2023/05/24 11:11:44;;;;;;;25.33;22.63;;;;;;;;;;5036542;28;20505;-79
2023/05/24 11:14:12;;;;;;;26.90;24.57;;;;;;;;;;5034326;28;20443;-76
2023/05/24 11:16:39;;;;;;;24.37;21.97;;;;;;;;;;5034576;28;20434;-77
2023/05/24 11:19:15;;;;;;;25.07;23.07;;;;;;;;;;5034827;28;20438;-76
2023/05/24 11:21:44;;;;;;;23.97;21.50;;;;;;;;;;5037497;28;20953;-76
2023/05/24 11:24:11;;;;;;;28.67;21.90;;;;;;;;;;5033665;28;20951;-76
2023/05/24 11:26:38;;;;;;;24.03;22.00;;;;;;;;;;5033037;28;20806;-76
2023/05/24 11:29:06;;;;;;;24.20;21.63;;;;;;;;;;5032938;28;20448;-76
2023/05/24 11:31:38;;;;;;;24.53;22.13;;;;;;;;;;5036320;28;20539;-79
2023/05/24 11:34:06;;;;;;;27.43;22.57;;;;;;;;;;5050228;28;20478;-75
2023/05/24 11:36:36;;;;;;;32.70;23.50;;;;;;;;;;5076857;28;20431;-75
2023/05/24 11:39:07;;;;;;;24.07;21.70;;;;;;;;;;5077762;28;20456;-75
2023/05/24 11:41:35;;;;;;;24.30;22.00;;;;;;;;;;5076321;28;20498;-76
2023/05/24 11:44:02;;;;;;;24.10;21.70;;;;;;;;;;5062034;28;20529;-75
2023/05/24 11:46:29;;;;;;;33.17;24.33;;;;;;;;;;5032478;28;20500;-75
2023/05/24 11:48:57;;;;;;;25.47;23.33;;;;;;;;;;5032805;28;20932;-76
2023/05/24 11:51:28;;;;;;;24.20;22.20;;;;;;;;;;5032857;28;20494;-76
2023/05/24 11:53:56;;;;;;;24.53;22.63;;;;;;;;;;5032426;28;20460;-75
2023/05/24 11:56:23;;;;;;;25.97;23.43;;;;;;;;;;5031855;28;20497;-75
2023/05/24 11:58:51;;;;;;;26.07;23.57;;;;;;;;;;5032735;28;20418;-75
2023/05/24 12:01:26;;;;;;;26.77;22.50;;;;;;;;;;5037015;28;20512;-75
2023/05/24 12:03:53;;;;;;;25.07;22.53;;;;;;;;;;5036646;28;20429;-76
2023/05/24 12:06:20;;;;;;;24.40;22.53;;;;;;;;;;5036015;28;20450;-76
2023/05/24 12:08:48;;;;;;;26.27;23.77;;;;;;;;;;5042956;28;20472;-81
2023/05/24 12:11:17;;;;;;;26.47;23.77;;;;;;;;;;5044760;28;20469;-81
2023/05/24 12:13:44;;;;;;;25.67;23.00;;;;;;;;;;5044459;28;20440;-80
2023/05/24 12:16:13;;;;;;;26.23;23.57;;;;;;;;;;5043096;28;20418;-79
2023/05/24 12:18:40;;;;;;;25.80;23.57;;;;;;;;;;5043538;28;20453;-80
2023/05/24 12:21:09;;;;;;;25.63;23.53;;;;;;;;;;5046177;28;20484;-79
2023/05/24 12:23:36;;;;;;;26.20;23.67;;;;;;;;;;5045124;28;20787;-80
2023/05/24 12:26:03;;;;;;;24.63;22.23;;;;;;;;;;5045390;28;20426;-80
2023/05/24 12:28:37;;;;;;;25.93;23.17;;;;;;;;;;5044995;28;20422;-79
2023/05/24 12:31:05;;;;;;;25.17;22.90;;;;;;;;;;5042824;28;20449;-81
2023/05/24 12:33:33;;;;;;;24.57;22.60;;;;;;;;;;5043163;28;20820;-81
2023/05/24 12:36:01;;;;;;;25.70;22.97;;;;;;;;;;5041616;28;21232;-81
2023/05/24 12:38:28;;;;;;;24.33;22.33;;;;;;;;;;5042564;28;20438;-81
2023/05/24 12:40:55;;;;;;;24.27;22.17;;;;;;;;;;5057792;28;20461;-80
2023/05/24 12:43:22;;;;;;;23.57;21.77;;;;;;;;;;5061571;28;20559;-80
2023/05/24 12:45:51;;;;;;;25.20;23.20;;;;;;;;;;5059633;28;20450;-81
2023/05/24 12:48:18;;;;;;;25.60;23.50;;;;;;;;;;5058233;28;20463;-80
2023/05/24 12:50:45;;;;;;;26.37;22.83;;;;;;;;;;5057276;28;20473;-82
2023/05/24 12:53:12;;;;;;;26.17;23.70;;;;;;;;;;5057259;28;20478;-80
2023/05/24 12:55:40;;;;;;;25.53;23.33;;;;;;;;;;5057366;28;20475;-81
2023/05/24 12:58:08;;;;;;;25.10;23.10;;;;;;;;;;5057730;28;20431;-81
2023/05/24 13:00:35;;;;;;;25.20;22.90;;;;;;;;;;5057423;28;20555;-81
2023/05/24 13:03:03;;;;;;;28.77;22.93;;;;;;;;;;5057165;28;20499;-84
2023/05/24 13:05:30;;;;;;;25.10;23.00;;;;;;;;;;5057743;28;20517;-84
2023/05/24 13:07:58;;;;;;;25.13;22.70;;;;;;;;;;5058397;28;20822;-80
2023/05/24 13:10:26;;;;;;;25.80;23.27;;;;;;;;;;5050798;28;20437;-78
2023/05/24 13:12:53;;;;;;;25.37;23.00;;;;;;;;;;5059544;28;20447;-77
2023/05/24 13:15:22;;;;;;;24.80;22.50;;;;;;;;;;5059628;28;20429;-78
2023/05/24 13:17:49;;;;;;;25.87;23.10;;;;;;;;;;5058978;28;20502;-78
2023/05/24 13:20:20;;;;;;;24.90;22.67;;;;;;;;;;5059631;28;20467;-78
2023/05/24 13:22:48;;;;;;;25.73;22.90;;;;;;;;;;5059916;28;20422;-76
2023/05/24 13:25:15;;;;;;;27.93;22.50;;;;;;;;;;5058374;28;20487;-78
2023/05/24 13:27:42;;;;;;;26.63;23.93;;;;;;;;;;5058492;28;20451;-78
2023/05/24 13:30:09;;;;;;;24.57;22.50;;;;;;;;;;5060498;28;20454;-78
2023/05/24 13:32:36;;;;;;;26.00;23.80;;;;;;;;;;5056398;28;20488;-76
2023/05/24 13:35:03;;;;;;;25.70;23.13;;;;;;;;;;5070085;28;20494;-76
2023/05/24 13:37:32;;;;;;;26.20;23.80;;;;;;;;;;5079353;28;20420;-79
2023/05/24 13:39:59;;;;;;;25.83;23.20;;;;;;;;;;5081056;28;20424;-79
2023/05/24 13:42:26;;;;;;;26.40;23.87;;;;;;;;;;5080266;28;20440;-78
2023/05/24 13:44:56;;;;;;;27.10;24.33;;;;;;;;;;5080306;28;20450;-79
2023/05/24 13:47:24;;;;;;;27.53;25.10;;;;;;;;;;5079331;28;20893;-79
2023/05/24 13:49:50;;;;;;;32.83;27.03;;;;;;;;;;5062423;28;20466;-77
2023/05/24 13:52:17;;;;;;;25.27;23.07;;;;;;;;;;5056887;28;20447;-78
2023/05/24 13:54:46;;;;;;;24.63;22.07;;;;;;;;;;5056650;28;20823;-78
2023/05/24 13:57:14;;;;;;;24.97;22.43;;;;;;;;;;5056213;28;20425;-78
2023/05/24 13:59:41;;;;;;;26.33;23.80;;;;;;;;;;5056749;28;20877;-78
2023/05/24 14:02:08;;;;;;;25.90;23.40;;;;;;;;;;5056906;28;20487;-78
2023/05/24 14:04:35;;;;;;;26.63;24.30;;;;;;;;;;5057313;28;20438;-78
2023/05/24 14:07:02;;;;;;;26.33;23.73;;;;;;;;;;5056019;28;20477;-78
2023/05/24 14:09:30;;;;;;;27.87;25.40;;;;;;;;;;5055825;28;20465;-78
2023/05/24 14:11:58;;;;;;;26.70;23.93;;;;;;;;;;5056213;28;20445;-78
2023/05/24 14:14:25;;;;;;;27.87;25.17;;;;;;;;;;5056023;28;21264;-78
2023/05/24 14:16:53;;;;;;;25.77;23.30;;;;;;;;;;5055720;28;20455;-77
2023/05/24 14:19:21;;;;;;;27.83;25.17;;;;;;;;;;5056200;28;20552;-78
2023/05/24 14:21:48;;;;;;;25.90;23.60;;;;;;;;;;5055176;28;20880;-78